sensor_id;sensor_type;location;lat;lon;timestamp;pressure;altitude;pressure_sealevel;temperature
53412;BMP280;39307;52.870;13.660;2023-05-10T00:01:42;100760.06;;;10.56
53412;BMP280;39307;52.870;13.660;2023-05-10T00:04:08;100760.50;;;10.60
53412;BMP280;39307;52.870;13.660;2023-05-10T00:06:34;100766.00;;;10.36
53412;BMP280;39307;52.870;13.660;2023-05-10T00:09:01;100759.22;;;10.27
53412;BMP280;39307;52.870;13.660;2023-05-10T00:11:27;100759.94;;;10.21
53412;BMP280;39307;52.870;13.660;2023-05-10T00:13:53;100761.50;;;10.16
53412;BMP280;39307;52.870;13.660;2023-05-10T00:16:19;100757.78;;;10.10
53412;BMP280;39307;52.870;13.660;2023-05-10T00:18:45;100765.25;;;9.99
53412;BMP280;39307;52.870;13.660;2023-05-10T00:21:12;100758.84;;;10.02
53412;BMP280;39307;52.870;13.660;2023-05-10T00:23:38;100760.94;;;9.92
53412;BMP280;39307;52.870;13.660;2023-05-10T00:26:04;100751.81;;;10.02
53412;BMP280;39307;52.870;13.660;2023-05-10T00:28:31;100753.34;;;9.97
53412;BMP280;39307;52.870;13.660;2023-05-10T00:30:57;100755.41;;;9.87
53412;BMP280;39307;52.870;13.660;2023-05-10T00:33:23;100750.69;;;9.82
53412;BMP280;39307;52.870;13.660;2023-05-10T00:35:49;100752.72;;;9.95
53412;BMP280;39307;52.870;13.660;2023-05-10T00:38:15;100742.97;;;10.03
53412;BMP280;39307;52.870;13.660;2023-05-10T00:40:42;100746.97;;;9.77
53412;BMP280;39307;52.870;13.660;2023-05-10T00:43:08;100752.19;;;9.77
53412;BMP280;39307;52.870;13.660;2023-05-10T00:45:36;100739.94;;;9.78
53412;BMP280;39307;52.870;13.660;2023-05-10T00:48:03;100742.09;;;9.74
53412;BMP280;39307;52.870;13.660;2023-05-10T00:50:30;100736.56;;;9.69
53412;BMP280;39307;52.870;13.660;2023-05-10T00:52:59;100732.34;;;9.68
53412;BMP280;39307;52.870;13.660;2023-05-10T00:55:25;100732.25;;;9.76
53412;BMP280;39307;52.870;13.660;2023-05-10T00:57:53;100726.75;;;9.71
53412;BMP280;39307;52.870;13.660;2023-05-10T01:00:19;100724.41;;;9.62
53412;BMP280;39307;52.870;13.660;2023-05-10T01:02:46;100732.66;;;9.51
53412;BMP280;39307;52.870;13.660;2023-05-10T01:05:12;100715.81;;;9.53
53412;BMP280;39307;52.870;13.660;2023-05-10T01:07:39;100713.09;;;9.47
53412;BMP280;39307;52.870;13.660;2023-05-10T01:10:09;100717.22;;;9.42
53412;BMP280;39307;52.870;13.660;2023-05-10T01:12:37;100721.22;;;9.30
53412;BMP280;39307;52.870;13.660;2023-05-10T01:15:06;100711.91;;;9.27
53412;BMP280;39307;52.870;13.660;2023-05-10T01:17:35;100710.53;;;9.39
53412;BMP280;39307;52.870;13.660;2023-05-10T01:20:02;100707.19;;;9.31
53412;BMP280;39307;52.870;13.660;2023-05-10T01:31:08;100706.66;;;9.13
53412;BMP280;39307;52.870;13.660;2023-05-10T01:34:07;100704.91;;;9.06
53412;BMP280;39307;52.870;13.660;2023-05-10T01:37:06;100692.44;;;9.16
53412;BMP280;39307;52.870;13.660;2023-05-10T01:39:55;100687.22;;;9.16
53412;BMP280;39307;52.870;13.660;2023-05-10T01:42:28;100695.19;;;9.22
53412;BMP280;39307;52.870;13.660;2023-05-10T01:48:15;100694.69;;;9.19
53412;BMP280;39307;52.870;13.660;2023-05-10T01:50:46;100686.94;;;9.11
53412;BMP280;39307;52.870;13.660;2023-05-10T01:53:18;100678.28;;;9.10
53412;BMP280;39307;52.870;13.660;2023-05-10T01:55:50;100677.16;;;9.05
53412;BMP280;39307;52.870;13.660;2023-05-10T01:58:28;100678.22;;;8.96
53412;BMP280;39307;52.870;13.660;2023-05-10T02:00:55;100677.41;;;8.95
53412;BMP280;39307;52.870;13.660;2023-05-10T02:03:24;100679.13;;;9.03
53412;BMP280;39307;52.870;13.660;2023-05-10T02:05:54;100678.56;;;8.93
53412;BMP280;39307;52.870;13.660;2023-05-10T02:08:22;100687.03;;;8.95
53412;BMP280;39307;52.870;13.660;2023-05-10T02:10:51;100678.41;;;8.94
53412;BMP280;39307;52.870;13.660;2023-05-10T02:13:18;100690.34;;;8.89
53412;BMP280;39307;52.870;13.660;2023-05-10T02:15:48;100688.19;;;8.93
53412;BMP280;39307;52.870;13.660;2023-05-10T02:18:15;100683.19;;;8.83
53412;BMP280;39307;52.870;13.660;2023-05-10T02:20:45;100672.41;;;8.86
53412;BMP280;39307;52.870;13.660;2023-05-10T02:23:12;100672.53;;;8.93
53412;BMP280;39307;52.870;13.660;2023-05-10T02:25:39;100670.69;;;9.01
53412;BMP280;39307;52.870;13.660;2023-05-10T02:28:07;100665.47;;;9.01
53412;BMP280;39307;52.870;13.660;2023-05-10T02:30:34;100672.34;;;8.94
53412;BMP280;39307;52.870;13.660;2023-05-10T02:33:03;100670.03;;;8.99
53412;BMP280;39307;52.870;13.660;2023-05-10T02:35:30;100669.69;;;9.02
53412;BMP280;39307;52.870;13.660;2023-05-10T02:37:58;100675.63;;;8.88
53412;BMP280;39307;52.870;13.660;2023-05-10T02:40:26;100671.59;;;8.86
53412;BMP280;39307;52.870;13.660;2023-05-10T02:42:54;100666.28;;;8.79
53412;BMP280;39307;52.870;13.660;2023-05-10T02:45:24;100670.50;;;8.80
53412;BMP280;39307;52.870;13.660;2023-05-10T02:47:52;100658.31;;;8.95
53412;BMP280;39307;52.870;13.660;2023-05-10T02:50:19;100661.97;;;8.86
53412;BMP280;39307;52.870;13.660;2023-05-10T02:52:51;100668.88;;;8.79
53412;BMP280;39307;52.870;13.660;2023-05-10T02:55:21;100662.13;;;8.63
53412;BMP280;39307;52.870;13.660;2023-05-10T02:57:59;100667.06;;;8.80
53412;BMP280;39307;52.870;13.660;2023-05-10T03:00:26;100675.38;;;8.83
53412;BMP280;39307;52.870;13.660;2023-05-10T03:02:53;100665.53;;;8.85
53412;BMP280;39307;52.870;13.660;2023-05-10T03:05:20;100663.38;;;8.66
53412;BMP280;39307;52.870;13.660;2023-05-10T03:07:47;100672.59;;;8.55
53412;BMP280;39307;52.870;13.660;2023-05-10T03:10:14;100663.56;;;8.65
53412;BMP280;39307;52.870;13.660;2023-05-10T03:16:10;100661.88;;;8.72
53412;BMP280;39307;52.870;13.660;2023-05-10T03:21:43;100663.69;;;8.71
53412;BMP280;39307;52.870;13.660;2023-05-10T03:24:14;100657.78;;;8.77
53412;BMP280;39307;52.870;13.660;2023-05-10T03:26:44;100663.72;;;8.63
53412;BMP280;39307;52.870;13.660;2023-05-10T03:29:12;100665.88;;;8.60
53412;BMP280;39307;52.870;13.660;2023-05-10T03:31:39;100661.44;;;8.68
53412;BMP280;39307;52.870;13.660;2023-05-10T03:34:05;100663.78;;;8.56
53412;BMP280;39307;52.870;13.660;2023-05-10T03:36:32;100659.25;;;8.50
53412;BMP280;39307;52.870;13.660;2023-05-10T03:38:58;100662.13;;;8.63
53412;BMP280;39307;52.870;13.660;2023-05-10T03:41:24;100665.16;;;8.44
53412;BMP280;39307;52.870;13.660;2023-05-10T03:43:51;100668.13;;;8.33
53412;BMP280;39307;52.870;13.660;2023-05-10T03:46:17;100667.50;;;8.31
53412;BMP280;39307;52.870;13.660;2023-05-10T03:48:43;100655.06;;;8.41
53412;BMP280;39307;52.870;13.660;2023-05-10T03:51:10;100662.97;;;8.25
53412;BMP280;39307;52.870;13.660;2023-05-10T03:53:36;100674.34;;;8.24
53412;BMP280;39307;52.870;13.660;2023-05-10T03:56:02;100661.28;;;8.32
53412;BMP280;39307;52.870;13.660;2023-05-10T03:58:28;100665.84;;;8.30
53412;BMP280;39307;52.870;13.660;2023-05-10T04:00:55;100662.78;;;8.27
53412;BMP280;39307;52.870;13.660;2023-05-10T04:03:21;100669.59;;;8.28
53412;BMP280;39307;52.870;13.660;2023-05-10T04:05:47;100658.22;;;8.29
53412;BMP280;39307;52.870;13.660;2023-05-10T04:08:14;100663.59;;;8.27
53412;BMP280;39307;52.870;13.660;2023-05-10T04:10:40;100650.84;;;8.32
53412;BMP280;39307;52.870;13.660;2023-05-10T04:13:06;100649.06;;;8.33
53412;BMP280;39307;52.870;13.660;2023-05-10T04:15:32;100646.31;;;8.26
53412;BMP280;39307;52.870;13.660;2023-05-10T04:17:58;100654.13;;;8.34
53412;BMP280;39307;52.870;13.660;2023-05-10T04:20:25;100655.44;;;8.30
53412;BMP280;39307;52.870;13.660;2023-05-10T04:22:51;100650.22;;;8.30
53412;BMP280;39307;52.870;13.660;2023-05-10T04:25:17;100644.38;;;8.28
53412;BMP280;39307;52.870;13.660;2023-05-10T04:27:43;100642.00;;;8.41
53412;BMP280;39307;52.870;13.660;2023-05-10T04:30:10;100643.34;;;8.37
53412;BMP280;39307;52.870;13.660;2023-05-10T04:32:36;100647.34;;;8.47
53412;BMP280;39307;52.870;13.660;2023-05-10T04:35:02;100647.56;;;8.38
53412;BMP280;39307;52.870;13.660;2023-05-10T04:37:29;100642.38;;;8.30
53412;BMP280;39307;52.870;13.660;2023-05-10T04:39:55;100640.06;;;8.43
53412;BMP280;39307;52.870;13.660;2023-05-10T04:42:21;100633.63;;;8.53
53412;BMP280;39307;52.870;13.660;2023-05-10T04:44:47;100640.66;;;8.53
53412;BMP280;39307;52.870;13.660;2023-05-10T04:47:13;100635.09;;;8.56
53412;BMP280;39307;52.870;13.660;2023-05-10T04:49:40;100637.69;;;8.56
53412;BMP280;39307;52.870;13.660;2023-05-10T04:52:06;100643.25;;;8.53
53412;BMP280;39307;52.870;13.660;2023-05-10T04:54:32;100639.22;;;8.72
53412;BMP280;39307;52.870;13.660;2023-05-10T04:56:58;100631.50;;;8.79
53412;BMP280;39307;52.870;13.660;2023-05-10T04:59:24;100639.41;;;8.71
53412;BMP280;39307;52.870;13.660;2023-05-10T05:01:50;100641.47;;;8.75
53412;BMP280;39307;52.870;13.660;2023-05-10T05:04:16;100634.88;;;8.87
53412;BMP280;39307;52.870;13.660;2023-05-10T05:06:43;100638.00;;;9.05
53412;BMP280;39307;52.870;13.660;2023-05-10T05:09:09;100633.69;;;9.12
53412;BMP280;39307;52.870;13.660;2023-05-10T05:11:35;100638.56;;;9.15
53412;BMP280;39307;52.870;13.660;2023-05-10T05:14:01;100638.41;;;9.16
53412;BMP280;39307;52.870;13.660;2023-05-10T05:16:30;100638.22;;;9.18
53412;BMP280;39307;52.870;13.660;2023-05-10T05:18:57;100636.88;;;9.21
53412;BMP280;39307;52.870;13.660;2023-05-10T05:21:23;100637.22;;;9.19
53412;BMP280;39307;52.870;13.660;2023-05-10T05:23:49;100636.16;;;9.27
53412;BMP280;39307;52.870;13.660;2023-05-10T05:26:15;100638.72;;;9.35
53412;BMP280;39307;52.870;13.660;2023-05-10T05:28:42;100634.59;;;9.41
53412;BMP280;39307;52.870;13.660;2023-05-10T05:31:08;100626.34;;;9.66
53412;BMP280;39307;52.870;13.660;2023-05-10T05:33:34;100630.31;;;9.62
53412;BMP280;39307;52.870;13.660;2023-05-10T05:36:02;100623.38;;;9.69
53412;BMP280;39307;52.870;13.660;2023-05-10T05:38:28;100633.56;;;9.78
53412;BMP280;39307;52.870;13.660;2023-05-10T05:40:54;100626.97;;;9.82
53412;BMP280;39307;52.870;13.660;2023-05-10T05:43:20;100626.72;;;9.91
53412;BMP280;39307;52.870;13.660;2023-05-10T05:45:47;100618.88;;;10.06
53412;BMP280;39307;52.870;13.660;2023-05-10T05:48:13;100633.50;;;10.00
53412;BMP280;39307;52.870;13.660;2023-05-10T05:50:39;100624.47;;;10.03
53412;BMP280;39307;52.870;13.660;2023-05-10T05:53:05;100622.81;;;10.30
53412;BMP280;39307;52.870;13.660;2023-05-10T05:55:32;100627.75;;;10.39
53412;BMP280;39307;52.870;13.660;2023-05-10T05:57:58;100619.81;;;10.47
53412;BMP280;39307;52.870;13.660;2023-05-10T06:00:24;100627.25;;;10.65
53412;BMP280;39307;52.870;13.660;2023-05-10T06:02:50;100616.31;;;10.61
53412;BMP280;39307;52.870;13.660;2023-05-10T06:05:17;100626.00;;;10.61
53412;BMP280;39307;52.870;13.660;2023-05-10T06:07:43;100622.03;;;10.65
53412;BMP280;39307;52.870;13.660;2023-05-10T06:10:10;100618.91;;;10.75
53412;BMP280;39307;52.870;13.660;2023-05-10T06:12:36;100612.00;;;10.89
53412;BMP280;39307;52.870;13.660;2023-05-10T06:15:03;100606.25;;;10.99
53412;BMP280;39307;52.870;13.660;2023-05-10T06:17:29;100615.06;;;11.13
53412;BMP280;39307;52.870;13.660;2023-05-10T06:19:55;100604.94;;;11.37
53412;BMP280;39307;52.870;13.660;2023-05-10T06:22:22;100595.84;;;11.53
53412;BMP280;39307;52.870;13.660;2023-05-10T06:24:48;100611.72;;;11.79
53412;BMP280;39307;52.870;13.660;2023-05-10T06:27:15;100607.47;;;11.72
53412;BMP280;39307;52.870;13.660;2023-05-10T06:29:41;100606.31;;;11.81
53412;BMP280;39307;52.870;13.660;2023-05-10T06:32:08;100606.75;;;11.90
53412;BMP280;39307;52.870;13.660;2023-05-10T06:34:34;100603.78;;;12.00
53412;BMP280;39307;52.870;13.660;2023-05-10T06:37:00;100602.34;;;11.97
53412;BMP280;39307;52.870;13.660;2023-05-10T06:39:27;100602.63;;;12.09
53412;BMP280;39307;52.870;13.660;2023-05-10T06:41:53;100593.22;;;12.33
53412;BMP280;39307;52.870;13.660;2023-05-10T06:44:19;100591.47;;;12.46
53412;BMP280;39307;52.870;13.660;2023-05-10T06:46:45;100598.09;;;12.42
53412;BMP280;39307;52.870;13.660;2023-05-10T06:49:12;100593.38;;;12.84
53412;BMP280;39307;52.870;13.660;2023-05-10T06:51:38;100587.88;;;12.73
53412;BMP280;39307;52.870;13.660;2023-05-10T06:54:04;100590.97;;;12.83
53412;BMP280;39307;52.870;13.660;2023-05-10T06:56:30;100591.38;;;13.05
53412;BMP280;39307;52.870;13.660;2023-05-10T06:58:56;100587.75;;;13.06
53412;BMP280;39307;52.870;13.660;2023-05-10T07:01:23;100593.63;;;13.40
53412;BMP280;39307;52.870;13.660;2023-05-10T07:03:49;100591.81;;;13.41
53412;BMP280;39307;52.870;13.660;2023-05-10T07:06:15;100583.06;;;13.66
53412;BMP280;39307;52.870;13.660;2023-05-10T07:08:41;100590.16;;;13.59
53412;BMP280;39307;52.870;13.660;2023-05-10T07:11:07;100578.41;;;13.55
53412;BMP280;39307;52.870;13.660;2023-05-10T07:13:34;100586.28;;;13.74
53412;BMP280;39307;52.870;13.660;2023-05-10T07:16:00;100574.09;;;13.92
53412;BMP280;39307;52.870;13.660;2023-05-10T07:18:27;100574.63;;;14.20
53412;BMP280;39307;52.870;13.660;2023-05-10T07:20:53;100577.97;;;14.40
53412;BMP280;39307;52.870;13.660;2023-05-10T07:23:20;100573.66;;;14.82
53412;BMP280;39307;52.870;13.660;2023-05-10T07:25:50;100570.34;;;14.93
53412;BMP280;39307;52.870;13.660;2023-05-10T07:28:16;100562.44;;;15.23
53412;BMP280;39307;52.870;13.660;2023-05-10T07:30:43;100572.72;;;15.49
53412;BMP280;39307;52.870;13.660;2023-05-10T07:33:10;100565.38;;;15.75
53412;BMP280;39307;52.870;13.660;2023-05-10T07:35:37;100551.97;;;16.12
53412;BMP280;39307;52.870;13.660;2023-05-10T07:38:04;100553.66;;;16.53
53412;BMP280;39307;52.870;13.660;2023-05-10T07:40:30;100552.94;;;16.86
53412;BMP280;39307;52.870;13.660;2023-05-10T07:42:57;100552.47;;;17.30
53412;BMP280;39307;52.870;13.660;2023-05-10T07:45:24;100546.19;;;17.92
53412;BMP280;39307;52.870;13.660;2023-05-10T07:47:50;100537.38;;;18.25
53412;BMP280;39307;52.870;13.660;2023-05-10T07:50:16;100541.97;;;18.74
53412;BMP280;39307;52.870;13.660;2023-05-10T07:52:42;100535.25;;;19.31
53412;BMP280;39307;52.870;13.660;2023-05-10T07:55:09;100530.66;;;19.43
53412;BMP280;39307;52.870;13.660;2023-05-10T07:57:35;100530.03;;;19.90
53412;BMP280;39307;52.870;13.660;2023-05-10T08:00:03;100528.75;;;20.39
53412;BMP280;39307;52.870;13.660;2023-05-10T08:02:29;100518.84;;;20.82
53412;BMP280;39307;52.870;13.660;2023-05-10T08:04:55;100512.47;;;21.14
53412;BMP280;39307;52.870;13.660;2023-05-10T08:07:22;100513.78;;;21.47
53412;BMP280;39307;52.870;13.660;2023-05-10T08:09:50;100521.16;;;21.81
53412;BMP280;39307;52.870;13.660;2023-05-10T08:12:16;100515.97;;;22.11
53412;BMP280;39307;52.870;13.660;2023-05-10T08:14:42;100508.63;;;22.47
53412;BMP280;39307;52.870;13.660;2023-05-10T08:17:09;100513.19;;;22.71
53412;BMP280;39307;52.870;13.660;2023-05-10T08:19:35;100500.13;;;22.85
53412;BMP280;39307;52.870;13.660;2023-05-10T08:22:01;100516.09;;;22.70
53412;BMP280;39307;52.870;13.660;2023-05-10T08:24:27;100507.81;;;22.52
53412;BMP280;39307;52.870;13.660;2023-05-10T08:26:53;100508.88;;;22.46
53412;BMP280;39307;52.870;13.660;2023-05-10T08:29:20;100499.59;;;23.07
53412;BMP280;39307;52.870;13.660;2023-05-10T08:31:46;100500.59;;;23.55
53412;BMP280;39307;52.870;13.660;2023-05-10T08:34:12;100512.59;;;23.73
53412;BMP280;39307;52.870;13.660;2023-05-10T08:36:39;100503.38;;;24.03
53412;BMP280;39307;52.870;13.660;2023-05-10T08:39:05;100503.88;;;24.20
53412;BMP280;39307;52.870;13.660;2023-05-10T08:41:33;100499.50;;;24.33
53412;BMP280;39307;52.870;13.660;2023-05-10T08:44:04;100504.06;;;24.28
53412;BMP280;39307;52.870;13.660;2023-05-10T08:46:34;100487.88;;;24.53
53412;BMP280;39307;52.870;13.660;2023-05-10T08:49:04;100484.03;;;24.68
53412;BMP280;39307;52.870;13.660;2023-05-10T08:51:35;100493.31;;;25.37
53412;BMP280;39307;52.870;13.660;2023-05-10T08:54:03;100494.06;;;25.70
53412;BMP280;39307;52.870;13.660;2023-05-10T08:56:30;100486.09;;;26.07
53412;BMP280;39307;52.870;13.660;2023-05-10T08:58:57;100483.88;;;26.13
53412;BMP280;39307;52.870;13.660;2023-05-10T09:01:24;100486.09;;;26.07
53412;BMP280;39307;52.870;13.660;2023-05-10T09:03:51;100483.41;;;26.07
53412;BMP280;39307;52.870;13.660;2023-05-10T09:06:18;100470.50;;;25.90
53412;BMP280;39307;52.870;13.660;2023-05-10T09:08:44;100485.09;;;26.03
53412;BMP280;39307;52.870;13.660;2023-05-10T09:11:12;100474.28;;;26.62
53412;BMP280;39307;52.870;13.660;2023-05-10T09:13:38;100474.97;;;27.04
53412;BMP280;39307;52.870;13.660;2023-05-10T09:16:05;100484.34;;;27.06
53412;BMP280;39307;52.870;13.660;2023-05-10T09:18:31;100474.59;;;27.10
53412;BMP280;39307;52.870;13.660;2023-05-10T09:20:57;100477.44;;;27.00
53412;BMP280;39307;52.870;13.660;2023-05-10T09:23:24;100478.69;;;27.08
53412;BMP280;39307;52.870;13.660;2023-05-10T09:26:03;100467.13;;;27.39
53412;BMP280;39307;52.870;13.660;2023-05-10T09:28:51;100474.50;;;27.02
53412;BMP280;39307;52.870;13.660;2023-05-10T09:31:17;100478.38;;;27.23
53412;BMP280;39307;52.870;13.660;2023-05-10T09:33:48;100487.16;;;27.15
53412;BMP280;39307;52.870;13.660;2023-05-10T09:36:15;100472.66;;;27.29
53412;BMP280;39307;52.870;13.660;2023-05-10T09:38:48;100474.59;;;27.55
53412;BMP280;39307;52.870;13.660;2023-05-10T09:41:20;100480.03;;;27.37
53412;BMP280;39307;52.870;13.660;2023-05-10T09:43:46;100478.16;;;27.64
53412;BMP280;39307;52.870;13.660;2023-05-10T09:46:13;100465.81;;;27.50
53412;BMP280;39307;52.870;13.660;2023-05-10T09:48:46;100484.47;;;27.28
53412;BMP280;39307;52.870;13.660;2023-05-10T09:51:20;100480.84;;;27.06
53412;BMP280;39307;52.870;13.660;2023-05-10T09:53:47;100481.88;;;26.78
53412;BMP280;39307;52.870;13.660;2023-05-10T09:56:13;100486.63;;;27.13
53412;BMP280;39307;52.870;13.660;2023-05-10T09:58:39;100483.63;;;27.01
53412;BMP280;39307;52.870;13.660;2023-05-10T10:01:11;100492.38;;;26.93
53412;BMP280;39307;52.870;13.660;2023-05-10T10:03:43;100487.03;;;27.06
53412;BMP280;39307;52.870;13.660;2023-05-10T10:06:09;100487.31;;;26.73
53412;BMP280;39307;52.870;13.660;2023-05-10T10:08:36;100497.41;;;26.45
53412;BMP280;39307;52.870;13.660;2023-05-10T10:11:02;100481.44;;;26.35
53412;BMP280;39307;52.870;13.660;2023-05-10T10:13:29;100472.63;;;26.84
53412;BMP280;39307;52.870;13.660;2023-05-10T10:15:55;100470.91;;;27.20
53412;BMP280;39307;52.870;13.660;2023-05-10T10:18:22;100464.13;;;27.40
53412;BMP280;39307;52.870;13.660;2023-05-10T10:20:48;100472.38;;;27.70
53412;BMP280;39307;52.870;13.660;2023-05-10T10:23:15;100467.69;;;27.89
53412;BMP280;39307;52.870;13.660;2023-05-10T10:25:41;100457.25;;;28.01
53412;BMP280;39307;52.870;13.660;2023-05-10T10:31:27;100455.66;;;28.00
53412;BMP280;39307;52.870;13.660;2023-05-10T10:34:06;100458.81;;;27.88
53412;BMP280;39307;52.870;13.660;2023-05-10T10:36:42;100444.78;;;28.40
53412;BMP280;39307;52.870;13.660;2023-05-10T10:39:10;100460.97;;;28.61
53412;BMP280;39307;52.870;13.660;2023-05-10T10:41:48;100458.34;;;28.48
53412;BMP280;39307;52.870;13.660;2023-05-10T10:47:01;100450.56;;;28.68
53412;BMP280;39307;52.870;13.660;2023-05-10T10:52:39;100449.16;;;28.71
53412;BMP280;39307;52.870;13.660;2023-05-10T10:55:12;100451.06;;;28.48
53412;BMP280;39307;52.870;13.660;2023-05-10T10:57:52;100454.34;;;28.45
53412;BMP280;39307;52.870;13.660;2023-05-10T11:00:31;100462.22;;;28.07
53412;BMP280;39307;52.870;13.660;2023-05-10T11:05:47;100455.06;;;28.51
53412;BMP280;39307;52.870;13.660;2023-05-10T11:08:28;100459.72;;;28.45
53412;BMP280;39307;52.870;13.660;2023-05-10T11:13:32;100445.53;;;29.18
53412;BMP280;39307;52.870;13.660;2023-05-10T11:16:09;100448.53;;;29.17
53412;BMP280;39307;52.870;13.660;2023-05-10T11:18:36;100451.38;;;28.90
53412;BMP280;39307;52.870;13.660;2023-05-10T11:21:03;100438.38;;;28.71
53412;BMP280;39307;52.870;13.660;2023-05-10T11:23:49;100452.69;;;29.01
53412;BMP280;39307;52.870;13.660;2023-05-10T11:26:15;100453.16;;;28.51
53412;BMP280;39307;52.870;13.660;2023-05-10T11:28:46;100454.44;;;28.75
53412;BMP280;39307;52.870;13.660;2023-05-10T11:31:17;100435.25;;;29.29
53412;BMP280;39307;52.870;13.660;2023-05-10T11:36:26;100451.97;;;29.69
53412;BMP280;39307;52.870;13.660;2023-05-10T11:38:53;100447.81;;;28.81
53412;BMP280;39307;52.870;13.660;2023-05-10T11:41:21;100448.38;;;28.70
53412;BMP280;39307;52.870;13.660;2023-05-10T11:43:50;100451.09;;;29.00
53412;BMP280;39307;52.870;13.660;2023-05-10T11:46:18;100458.44;;;29.38
53412;BMP280;39307;52.870;13.660;2023-05-10T11:48:44;100441.28;;;29.26
53412;BMP280;39307;52.870;13.660;2023-05-10T11:51:11;100448.94;;;29.70
53412;BMP280;39307;52.870;13.660;2023-05-10T11:53:37;100438.38;;;29.99
53412;BMP280;39307;52.870;13.660;2023-05-10T11:56:08;100439.66;;;29.55
53412;BMP280;39307;52.870;13.660;2023-05-10T11:58:37;100445.91;;;29.63
53412;BMP280;39307;52.870;13.660;2023-05-10T12:01:05;100437.22;;;29.75
53412;BMP280;39307;52.870;13.660;2023-05-10T12:03:31;100434.59;;;30.08
53412;BMP280;39307;52.870;13.660;2023-05-10T12:05:58;100450.84;;;29.40
53412;BMP280;39307;52.870;13.660;2023-05-10T12:08:26;100455.28;;;29.36
53412;BMP280;39307;52.870;13.660;2023-05-10T12:11:03;100452.81;;;29.48
53412;BMP280;39307;52.870;13.660;2023-05-10T12:13:30;100435.16;;;29.80
53412;BMP280;39307;52.870;13.660;2023-05-10T12:16:00;100445.28;;;29.66
53412;BMP280;39307;52.870;13.660;2023-05-10T12:18:40;100449.47;;;29.81
53412;BMP280;39307;52.870;13.660;2023-05-10T12:21:06;100442.88;;;30.20
53412;BMP280;39307;52.870;13.660;2023-05-10T12:23:33;100443.16;;;30.02
53412;BMP280;39307;52.870;13.660;2023-05-10T12:26:03;100452.78;;;29.86
53412;BMP280;39307;52.870;13.660;2023-05-10T12:28:30;100456.22;;;29.31
53412;BMP280;39307;52.870;13.660;2023-05-10T12:31:00;100449.56;;;29.37
53412;BMP280;39307;52.870;13.660;2023-05-10T12:33:27;100451.13;;;29.30
53412;BMP280;39307;52.870;13.660;2023-05-10T12:36:02;100453.84;;;29.68
53412;BMP280;39307;52.870;13.660;2023-05-10T12:38:31;100450.50;;;30.18
53412;BMP280;39307;52.870;13.660;2023-05-10T12:41:07;100456.84;;;30.22
53412;BMP280;39307;52.870;13.660;2023-05-10T12:43:34;100455.22;;;30.13
53412;BMP280;39307;52.870;13.660;2023-05-10T12:46:07;100459.56;;;29.67
53412;BMP280;39307;52.870;13.660;2023-05-10T12:48:35;100451.53;;;30.00
53412;BMP280;39307;52.870;13.660;2023-05-10T12:51:02;100450.72;;;29.91
53412;BMP280;39307;52.870;13.660;2023-05-10T12:53:29;100461.22;;;29.55
53412;BMP280;39307;52.870;13.660;2023-05-10T12:55:55;100457.41;;;29.56
53412;BMP280;39307;52.870;13.660;2023-05-10T12:58:21;100457.84;;;29.41
53412;BMP280;39307;52.870;13.660;2023-05-10T13:00:48;100457.50;;;29.04
53412;BMP280;39307;52.870;13.660;2023-05-10T13:03:14;100461.44;;;29.28
53412;BMP280;39307;52.870;13.660;2023-05-10T13:05:40;100465.63;;;29.12
53412;BMP280;39307;52.870;13.660;2023-05-10T13:08:06;100455.47;;;29.39
53412;BMP280;39307;52.870;13.660;2023-05-10T13:10:33;100462.16;;;29.50
53412;BMP280;39307;52.870;13.660;2023-05-10T13:12:59;100467.16;;;28.62
53412;BMP280;39307;52.870;13.660;2023-05-10T13:15:26;100463.63;;;28.40
53412;BMP280;39307;52.870;13.660;2023-05-10T13:17:53;100448.59;;;28.39
53412;BMP280;39307;52.870;13.660;2023-05-10T13:20:19;100465.41;;;28.09
53412;BMP280;39307;52.870;13.660;2023-05-10T13:22:46;100464.03;;;27.98
53412;BMP280;39307;52.870;13.660;2023-05-10T13:25:13;100467.59;;;27.67
53412;BMP280;39307;52.870;13.660;2023-05-10T13:27:42;100471.59;;;27.70
53412;BMP280;39307;52.870;13.660;2023-05-10T13:30:09;100455.78;;;27.42
53412;BMP280;39307;52.870;13.660;2023-05-10T13:32:35;100467.34;;;27.11
53412;BMP280;39307;52.870;13.660;2023-05-10T13:35:02;100465.31;;;26.90
53412;BMP280;39307;52.870;13.660;2023-05-10T13:37:29;100450.50;;;27.05
53412;BMP280;39307;52.870;13.660;2023-05-10T13:39:56;100453.81;;;27.16
53412;BMP280;39307;52.870;13.660;2023-05-10T13:42:23;100459.28;;;27.11
53412;BMP280;39307;52.870;13.660;2023-05-10T13:44:50;100444.28;;;26.92
53412;BMP280;39307;52.870;13.660;2023-05-10T13:47:16;100463.09;;;26.92
53412;BMP280;39307;52.870;13.660;2023-05-10T13:49:43;100446.53;;;26.71
53412;BMP280;39307;52.870;13.660;2023-05-10T13:52:09;100454.75;;;26.93
53412;BMP280;39307;52.870;13.660;2023-05-10T13:54:36;100449.78;;;27.00
53412;BMP280;39307;52.870;13.660;2023-05-10T13:57:02;100438.97;;;26.73
53412;BMP280;39307;52.870;13.660;2023-05-10T13:59:29;100447.22;;;26.59
53412;BMP280;39307;52.870;13.660;2023-05-10T14:01:55;100437.09;;;26.56
53412;BMP280;39307;52.870;13.660;2023-05-10T14:04:22;100448.00;;;26.28
53412;BMP280;39307;52.870;13.660;2023-05-10T14:06:48;100451.69;;;26.13
53412;BMP280;39307;52.870;13.660;2023-05-10T14:09:14;100452.63;;;26.22
53412;BMP280;39307;52.870;13.660;2023-05-10T14:11:40;100449.88;;;26.27
53412;BMP280;39307;52.870;13.660;2023-05-10T14:14:07;100465.34;;;26.17
53412;BMP280;39307;52.870;13.660;2023-05-10T14:16:33;100466.34;;;25.98
53412;BMP280;39307;52.870;13.660;2023-05-10T14:18:59;100462.63;;;25.76
53412;BMP280;39307;52.870;13.660;2023-05-10T14:21:25;100461.88;;;25.70
53412;BMP280;39307;52.870;13.660;2023-05-10T14:23:52;100448.31;;;26.03
53412;BMP280;39307;52.870;13.660;2023-05-10T14:26:18;100446.38;;;26.08
53412;BMP280;39307;52.870;13.660;2023-05-10T14:28:44;100445.47;;;26.18